sensor_id;sensor_type;location;lat;lon;timestamp;P1;durP1;ratioP1;P2;durP2;ratioP2
3309;SDS011;1667;53.238;10.394;2023-07-13T00:01:15;4.90;;;2.60;;
3309;SDS011;1667;53.238;10.394;2023-07-13T00:06:16;5.83;;;2.40;;
3309;SDS011;1667;53.238;10.394;2023-07-13T00:11:16;5.63;;;2.30;;
3309;SDS011;1667;53.238;10.394;2023-07-13T00:16:15;2.20;;;2.03;;
3309;SDS011;1667;53.238;10.394;2023-07-13T00:21:16;7.50;;;2.30;;
3309;SDS011;1667;53.238;10.394;2023-07-13T00:26:15;2.43;;;1.93;;
3309;SDS011;1667;53.238;10.394;2023-07-13T00:31:14;4.97;;;2.50;;
3309;SDS011;1667;53.238;10.394;2023-07-13T00:36:13;5.27;;;3.10;;
3309;SDS011;1667;53.238;10.394;2023-07-13T00:41:13;2.50;;;2.13;;
3309;SDS011;1667;53.238;10.394;2023-07-13T00:46:16;4.10;;;2.33;;
3309;SDS011;1667;53.238;10.394;2023-07-13T00:51:18;2.23;;;2.13;;
3309;SDS011;1667;53.238;10.394;2023-07-13T00:56:23;3.53;;;3.23;;
3309;SDS011;1667;53.238;10.394;2023-07-13T01:01:22;6.23;;;2.20;;
3309;SDS011;1667;53.238;10.394;2023-07-13T01:06:20;2.60;;;2.40;;
3309;SDS011;1667;53.238;10.394;2023-07-13T01:11:19;3.73;;;2.50;;
3309;SDS011;1667;53.238;10.394;2023-07-13T01:16:22;4.80;;;2.43;;
3309;SDS011;1667;53.238;10.394;2023-07-13T01:21:24;2.70;;;2.13;;
3309;SDS011;1667;53.238;10.394;2023-07-13T01:26:22;2.73;;;2.53;;
3309;SDS011;1667;53.238;10.394;2023-07-13T01:31:21;4.93;;;2.40;;
3309;SDS011;1667;53.238;10.394;2023-07-13T01:36:20;3.43;;;2.97;;
3309;SDS011;1667;53.238;10.394;2023-07-13T01:41:20;6.43;;;2.20;;
3309;SDS011;1667;53.238;10.394;2023-07-13T01:46:18;4.70;;;3.17;;
3309;SDS011;1667;53.238;10.394;2023-07-13T01:51:19;3.57;;;3.27;;
3309;SDS011;1667;53.238;10.394;2023-07-13T01:56:19;2.57;;;2.27;;
3309;SDS011;1667;53.238;10.394;2023-07-13T02:01:18;4.90;;;2.40;;
3309;SDS011;1667;53.238;10.394;2023-07-13T02:12:07;3.77;;;2.53;;
3309;SDS011;1667;53.238;10.394;2023-07-13T02:17:07;2.73;;;2.50;;
3309;SDS011;1667;53.238;10.394;2023-07-13T02:22:07;4.60;;;2.90;;
3309;SDS011;1667;53.238;10.394;2023-07-13T02:27:06;3.03;;;2.40;;
3309;SDS011;1667;53.238;10.394;2023-07-13T02:32:06;3.67;;;2.63;;
3309;SDS011;1667;53.238;10.394;2023-07-13T02:37:05;4.20;;;2.93;;
3309;SDS011;1667;53.238;10.394;2023-07-13T02:42:05;6.27;;;3.00;;
3309;SDS011;1667;53.238;10.394;2023-07-13T02:47:05;2.53;;;2.33;;
3309;SDS011;1667;53.238;10.394;2023-07-13T02:52:05;4.80;;;2.90;;
3309;SDS011;1667;53.238;10.394;2023-07-13T02:57:04;3.93;;;3.20;;
3309;SDS011;1667;53.238;10.394;2023-07-13T03:02:03;5.30;;;2.97;;
3309;SDS011;1667;53.238;10.394;2023-07-13T03:07:03;3.30;;;3.00;;
3309;SDS011;1667;53.238;10.394;2023-07-13T03:12:06;2.80;;;2.50;;
3309;SDS011;1667;53.238;10.394;2023-07-13T03:17:07;3.30;;;2.77;;
3309;SDS011;1667;53.238;10.394;2023-07-13T03:22:08;3.90;;;3.40;;
3309;SDS011;1667;53.238;10.394;2023-07-13T03:27:09;4.10;;;3.30;;
3309;SDS011;1667;53.238;10.394;2023-07-13T03:32:12;3.80;;;2.70;;
3309;SDS011;1667;53.238;10.394;2023-07-13T03:37:11;5.90;;;3.10;;
3309;SDS011;1667;53.238;10.394;2023-07-13T03:42:10;4.93;;;3.17;;
3309;SDS011;1667;53.238;10.394;2023-07-13T03:47:08;5.60;;;2.67;;
3309;SDS011;1667;53.238;10.394;2023-07-13T03:52:08;4.73;;;2.60;;
3309;SDS011;1667;53.238;10.394;2023-07-13T03:57:07;2.80;;;2.60;;
3309;SDS011;1667;53.238;10.394;2023-07-13T04:02:07;4.50;;;2.67;;
3309;SDS011;1667;53.238;10.394;2023-07-13T04:07:06;3.30;;;3.00;;
3309;SDS011;1667;53.238;10.394;2023-07-13T04:12:25;3.57;;;2.93;;
3309;SDS011;1667;53.238;10.394;2023-07-13T04:17:27;3.17;;;2.97;;
3309;SDS011;1667;53.238;10.394;2023-07-13T04:22:25;5.23;;;3.07;;
3309;SDS011;1667;53.238;10.394;2023-07-13T04:27:24;3.17;;;2.03;;
3309;SDS011;1667;53.238;10.394;2023-07-13T04:32:25;3.43;;;2.20;;
3309;SDS011;1667;53.238;10.394;2023-07-13T04:37:23;2.40;;;2.20;;
3309;SDS011;1667;53.238;10.394;2023-07-13T04:42:22;4.93;;;2.50;;
3309;SDS011;1667;53.238;10.394;2023-07-13T04:47:22;3.93;;;2.87;;
3309;SDS011;1667;53.238;10.394;2023-07-13T04:52:20;3.10;;;2.33;;
3309;SDS011;1667;53.238;10.394;2023-07-13T04:57:19;4.10;;;2.10;;
3309;SDS011;1667;53.238;10.394;2023-07-13T05:02:17;3.73;;;2.20;;
3309;SDS011;1667;53.238;10.394;2023-07-13T05:07:18;3.90;;;2.27;;
3309;SDS011;1667;53.238;10.394;2023-07-13T05:12:19;4.07;;;3.00;;
3309;SDS011;1667;53.238;10.394;2023-07-13T05:17:17;2.43;;;2.23;;
3309;SDS011;1667;53.238;10.394;2023-07-13T05:22:16;2.33;;;2.13;;
3309;SDS011;1667;53.238;10.394;2023-07-13T05:27:17;5.17;;;2.97;;
3309;SDS011;1667;53.238;10.394;2023-07-13T05:32:16;5.47;;;2.60;;
3309;SDS011;1667;53.238;10.394;2023-07-13T05:37:16;2.33;;;2.00;;
3309;SDS011;1667;53.238;10.394;2023-07-13T05:42:16;5.93;;;2.70;;
3309;SDS011;1667;53.238;10.394;2023-07-13T05:47:15;3.60;;;2.67;;
3309;SDS011;1667;53.238;10.394;2023-07-13T05:52:13;2.87;;;1.90;;
3309;SDS011;1667;53.238;10.394;2023-07-13T05:57:12;6.43;;;2.47;;
3309;SDS011;1667;53.238;10.394;2023-07-13T06:02:13;4.40;;;2.07;;
3309;SDS011;1667;53.238;10.394;2023-07-13T06:07:11;3.37;;;2.50;;
3309;SDS011;1667;53.238;10.394;2023-07-13T06:12:10;2.87;;;2.00;;
3309;SDS011;1667;53.238;10.394;2023-07-13T06:17:08;3.67;;;2.13;;
3309;SDS011;1667;53.238;10.394;2023-07-13T06:22:09;10.57;;;2.10;;
3309;SDS011;1667;53.238;10.394;2023-07-13T06:27:07;4.20;;;2.40;;
3309;SDS011;1667;53.238;10.394;2023-07-13T06:32:06;4.00;;;1.90;;
3309;SDS011;1667;53.238;10.394;2023-07-13T06:37:06;8.10;;;2.10;;
3309;SDS011;1667;53.238;10.394;2023-07-13T06:42:06;3.73;;;3.13;;
3309;SDS011;1667;53.238;10.394;2023-07-13T06:47:06;8.97;;;1.73;;
3309;SDS011;1667;53.238;10.394;2023-07-13T06:52:05;6.27;;;2.10;;
3309;SDS011;1667;53.238;10.394;2023-07-13T06:57:04;3.63;;;2.07;;
3309;SDS011;1667;53.238;10.394;2023-07-13T07:02:05;7.67;;;1.83;;
3309;SDS011;1667;53.238;10.394;2023-07-13T07:07:05;4.23;;;2.03;;
3309;SDS011;1667;53.238;10.394;2023-07-13T07:17:40;7.60;;;2.50;;
3309;SDS011;1667;53.238;10.394;2023-07-13T07:22:39;4.83;;;2.70;;
3309;SDS011;1667;53.238;10.394;2023-07-13T07:27:38;5.20;;;2.10;;
3309;SDS011;1667;53.238;10.394;2023-07-13T07:32:41;3.00;;;1.83;;
3309;SDS011;1667;53.238;10.394;2023-07-13T07:37:42;4.03;;;2.27;;
3309;SDS011;1667;53.238;10.394;2023-07-13T07:42:44;4.53;;;1.70;;
3309;SDS011;1667;53.238;10.394;2023-07-13T07:47:44;8.90;;;1.97;;
3309;SDS011;1667;53.238;10.394;2023-07-13T07:52:43;4.23;;;1.90;;
3309;SDS011;1667;53.238;10.394;2023-07-13T07:57:41;5.70;;;2.10;;
3309;SDS011;1667;53.238;10.394;2023-07-13T08:02:44;4.70;;;2.17;;
3309;SDS011;1667;53.238;10.394;2023-07-13T08:07:45;10.60;;;1.67;;
3309;SDS011;1667;53.238;10.394;2023-07-13T08:12:44;5.90;;;2.33;;
3309;SDS011;1667;53.238;10.394;2023-07-13T08:17:47;6.30;;;2.47;;
3309;SDS011;1667;53.238;10.394;2023-07-13T08:22:47;3.37;;;1.83;;
3309;SDS011;1667;53.238;10.394;2023-07-13T08:27:45;3.30;;;2.00;;
3309;SDS011;1667;53.238;10.394;2023-07-13T08:32:44;10.97;;;2.27;;
3309;SDS011;1667;53.238;10.394;2023-07-13T08:37:44;3.73;;;1.70;;
3309;SDS011;1667;53.238;10.394;2023-07-13T08:42:44;6.17;;;2.30;;
3309;SDS011;1667;53.238;10.394;2023-07-13T08:47:49;3.27;;;1.57;;
3309;SDS011;1667;53.238;10.394;2023-07-13T08:52:53;5.93;;;1.40;;
3309;SDS011;1667;53.238;10.394;2023-07-13T08:57:54;5.13;;;1.83;;
3309;SDS011;1667;53.238;10.394;2023-07-13T09:02:58;3.10;;;1.60;;
3309;SDS011;1667;53.238;10.394;2023-07-13T09:08:04;2.13;;;1.47;;
3309;SDS011;1667;53.238;10.394;2023-07-13T09:13:19;3.43;;;1.50;;
3309;SDS011;1667;53.238;10.394;2023-07-13T09:18:27;3.90;;;1.40;;
3309;SDS011;1667;53.238;10.394;2023-07-13T09:23:29;5.43;;;1.80;;
3309;SDS011;1667;53.238;10.394;2023-07-13T09:28:29;3.30;;;1.47;;
3309;SDS011;1667;53.238;10.394;2023-07-13T09:33:32;1.50;;;1.27;;
3309;SDS011;1667;53.238;10.394;2023-07-13T09:38:33;3.00;;;1.40;;
3309;SDS011;1667;53.238;10.394;2023-07-13T09:43:32;3.90;;;1.90;;
3309;SDS011;1667;53.238;10.394;2023-07-13T09:48:33;1.47;;;1.20;;
3309;SDS011;1667;53.238;10.394;2023-07-13T09:53:34;4.33;;;1.90;;
3309;SDS011;1667;53.238;10.394;2023-07-13T09:58:34;3.43;;;1.50;;
3309;SDS011;1667;53.238;10.394;2023-07-13T10:03:34;1.53;;;1.43;;
3309;SDS011;1667;53.238;10.394;2023-07-13T10:08:38;3.33;;;1.33;;
3309;SDS011;1667;53.238;10.394;2023-07-13T10:13:37;2.50;;;1.10;;
3309;SDS011;1667;53.238;10.394;2023-07-13T10:18:58;4.57;;;1.60;;
3309;SDS011;1667;53.238;10.394;2023-07-13T10:24:00;2.37;;;1.30;;
3309;SDS011;1667;53.238;10.394;2023-07-13T10:29:05;2.03;;;1.17;;
3309;SDS011;1667;53.238;10.394;2023-07-13T10:34:10;2.17;;;1.73;;
3309;SDS011;1667;53.238;10.394;2023-07-13T10:39:13;3.53;;;1.47;;
3309;SDS011;1667;53.238;10.394;2023-07-13T10:44:18;3.60;;;1.40;;
3309;SDS011;1667;53.238;10.394;2023-07-13T10:49:22;3.17;;;1.40;;
3309;SDS011;1667;53.238;10.394;2023-07-13T10:54:26;4.07;;;1.60;;
3309;SDS011;1667;53.238;10.394;2023-07-13T10:59:28;1.40;;;1.20;;
3309;SDS011;1667;53.238;10.394;2023-07-13T11:04:27;1.47;;;1.27;;
3309;SDS011;1667;53.238;10.394;2023-07-13T11:09:38;2.20;;;1.10;;
3309;SDS011;1667;53.238;10.394;2023-07-13T11:15:03;6.70;;;1.70;;
3309;SDS011;1667;53.238;10.394;2023-07-13T11:20:21;4.33;;;2.37;;
3309;SDS011;1667;53.238;10.394;2023-07-13T11:25:31;2.27;;;1.40;;
3309;SDS011;1667;53.238;10.394;2023-07-13T11:30:32;2.20;;;1.37;;
3309;SDS011;1667;53.238;10.394;2023-07-13T11:35:37;3.17;;;1.47;;
3309;SDS011;1667;53.238;10.394;2023-07-13T11:40:42;2.30;;;1.77;;
3309;SDS011;1667;53.238;10.394;2023-07-13T11:45:51;1.67;;;1.57;;
3309;SDS011;1667;53.238;10.394;2023-07-13T11:50:54;2.60;;;1.77;;
3309;SDS011;1667;53.238;10.394;2023-07-13T11:55:58;4.70;;;1.73;;
3309;SDS011;1667;53.238;10.394;2023-07-13T12:00:58;3.00;;;1.30;;
3309;SDS011;1667;53.238;10.394;2023-07-13T12:06:02;2.67;;;2.47;;
3309;SDS011;1667;53.238;10.394;2023-07-13T12:11:05;1.63;;;1.53;;
3309;SDS011;1667;53.238;10.394;2023-07-13T12:16:14;3.10;;;1.70;;
3309;SDS011;1667;53.238;10.394;2023-07-13T12:21:16;2.40;;;1.50;;
3309;SDS011;1667;53.238;10.394;2023-07-13T12:26:18;4.80;;;1.70;;
3309;SDS011;1667;53.238;10.394;2023-07-13T12:31:25;2.50;;;1.40;;
3309;SDS011;1667;53.238;10.394;2023-07-13T12:36:30;1.90;;;1.50;;
3309;SDS011;1667;53.238;10.394;2023-07-13T12:41:32;2.63;;;2.43;;
3309;SDS011;1667;53.238;10.394;2023-07-13T12:46:31;2.10;;;1.90;;
3309;SDS011;1667;53.238;10.394;2023-07-13T12:51:30;5.33;;;1.83;;
3309;SDS011;1667;53.238;10.394;2023-07-13T12:56:29;1.80;;;1.70;;
3309;SDS011;1667;53.238;10.394;2023-07-13T13:01:29;1.63;;;1.53;;
3309;SDS011;1667;53.238;10.394;2023-07-13T13:06:34;1.70;;;1.60;;
3309;SDS011;1667;53.238;10.394;2023-07-13T13:11:34;3.07;;;2.00;;
3309;SDS011;1667;53.238;10.394;2023-07-13T13:16:34;2.50;;;2.20;;
3309;SDS011;1667;53.238;10.394;2023-07-13T13:21:36;1.70;;;1.60;;
3309;SDS011;1667;53.238;10.394;2023-07-13T13:26:34;4.80;;;1.47;;
3309;SDS011;1667;53.238;10.394;2023-07-13T13:31:34;4.20;;;1.50;;
3309;SDS011;1667;53.238;10.394;2023-07-13T13:36:33;1.60;;;1.50;;
3309;SDS011;1667;53.238;10.394;2023-07-13T13:41:31;2.03;;;1.70;;
3309;SDS011;1667;53.238;10.394;2023-07-13T13:46:30;3.00;;;1.87;;
3309;SDS011;1667;53.238;10.394;2023-07-13T13:51:30;2.90;;;2.17;;
3309;SDS011;1667;53.238;10.394;2023-07-13T13:56:28;2.37;;;2.07;;
3309;SDS011;1667;53.238;10.394;2023-07-13T14:01:27;2.10;;;2.00;;
3309;SDS011;1667;53.238;10.394;2023-07-13T14:06:26;2.77;;;2.23;;
3309;SDS011;1667;53.238;10.394;2023-07-13T14:11:26;2.67;;;2.00;;
3309;SDS011;1667;53.238;10.394;2023-07-13T14:16:26;2.07;;;1.97;;
3309;SDS011;1667;53.238;10.394;2023-07-13T14:27:32;1.70;;;1.60;;
3309;SDS011;1667;53.238;10.394;2023-07-13T14:32:30;2.03;;;1.93;;
3309;SDS011;1667;53.238;10.394;2023-07-13T14:37:29;3.60;;;1.97;;
3309;SDS011;1667;53.238;10.394;2023-07-13T14:42:28;2.27;;;1.60;;
3309;SDS011;1667;53.238;10.394;2023-07-13T14:47:28;1.80;;;1.70;;
3309;SDS011;1667;53.238;10.394;2023-07-13T14:52:26;3.13;;;2.33;;
3309;SDS011;1667;53.238;10.394;2023-07-13T14:57:25;1.67;;;1.57;;
3309;SDS011;1667;53.238;10.394;2023-07-13T15:02:25;1.80;;;1.70;;
3309;SDS011;1667;53.238;10.394;2023-07-13T15:07:27;3.00;;;1.80;;
3309;SDS011;1667;53.238;10.394;2023-07-13T15:12:26;1.87;;;1.70;;
3309;SDS011;1667;53.238;10.394;2023-07-13T15:17:26;2.37;;;1.90;;
3309;SDS011;1667;53.238;10.394;2023-07-13T15:22:30;3.37;;;1.60;;
3309;SDS011;1667;53.238;10.394;2023-07-13T15:27:29;1.10;;;1.10;;
3309;SDS011;1667;53.238;10.394;2023-07-13T15:32:29;1.70;;;1.30;;
3309;SDS011;1667;53.238;10.394;2023-07-13T15:37:29;1.10;;;1.10;;
3309;SDS011;1667;53.238;10.394;2023-07-13T15:42:27;1.80;;;1.40;;
3309;SDS011;1667;53.238;10.394;2023-07-13T15:47:26;2.00;;;1.70;;
3309;SDS011;1667;53.238;10.394;2023-07-13T15:52:26;2.00;;;1.80;;
3309;SDS011;1667;53.238;10.394;2023-07-13T15:57:27;1.40;;;1.30;;
3309;SDS011;1667;53.238;10.394;2023-07-13T16:07:53;2.93;;;1.37;;
3309;SDS011;1667;53.238;10.394;2023-07-13T16:12:52;1.50;;;1.40;;
3309;SDS011;1667;53.238;10.394;2023-07-13T16:17:51;1.47;;;1.30;;
3309;SDS011;1667;53.238;10.394;2023-07-13T16:33:39;1.20;;;1.10;;
3309;SDS011;1667;53.238;10.394;2023-07-13T16:38:40;1.60;;;1.50;;
3309;SDS011;1667;53.238;10.394;2023-07-13T16:43:42;1.27;;;1.03;;
3309;SDS011;1667;53.238;10.394;2023-07-13T16:48:42;1.47;;;1.37;;
3309;SDS011;1667;53.238;10.394;2023-07-13T16:53:42;2.73;;;1.40;;
3309;SDS011;1667;53.238;10.394;2023-07-13T16:58:40;2.67;;;1.40;;
3309;SDS011;1667;53.238;10.394;2023-07-13T17:03:41;1.37;;;1.27;;
3309;SDS011;1667;53.238;10.394;2023-07-13T17:08:39;1.70;;;1.23;;
3309;SDS011;1667;53.238;10.394;2023-07-13T17:25:12;1.33;;;1.20;;
3309;SDS011;1667;53.238;10.394;2023-07-13T17:30:13;1.70;;;1.60;;
3309;SDS011;1667;53.238;10.394;2023-07-13T17:35:15;1.33;;;1.20;;
3309;SDS011;1667;53.238;10.394;2023-07-13T17:47:15;1.30;;;1.20;;
3309;SDS011;1667;53.238;10.394;2023-07-13T17:52:23;1.20;;;1.13;;
3309;SDS011;1667;53.238;10.394;2023-07-13T17:57:25;1.20;;;1.20;;
3309;SDS011;1667;53.238;10.394;2023-07-13T18:02:24;2.97;;;1.40;;
3309;SDS011;1667;53.238;10.394;2023-07-13T18:07:30;1.40;;;1.30;;
3309;SDS011;1667;53.238;10.394;2023-07-13T18:12:28;1.63;;;1.20;;
3309;SDS011;1667;53.238;10.394;2023-07-13T18:17:28;1.67;;;1.20;;
3309;SDS011;1667;53.238;10.394;2023-07-13T18:22:27;3.33;;;1.67;;
3309;SDS011;1667;53.238;10.394;2023-07-13T18:27:29;1.13;;;1.03;;
3309;SDS011;1667;53.238;10.394;2023-07-13T18:32:28;2.03;;;1.30;;
3309;SDS011;1667;53.238;10.394;2023-07-13T18:37:29;1.13;;;1.10;;
3309;SDS011;1667;53.238;10.394;2023-07-13T18:42:29;2.00;;;1.50;;
3309;SDS011;1667;53.238;10.394;2023-07-13T18:47:29;1.47;;;1.30;;
3309;SDS011;1667;53.238;10.394;2023-07-13T18:52:32;1.40;;;1.30;;
3309;SDS011;1667;53.238;10.394;2023-07-13T18:57:31;1.30;;;1.10;;
3309;SDS011;1667;53.238;10.394;2023-07-13T19:02:30;1.30;;;1.20;;
3309;SDS011;1667;53.238;10.394;2023-07-13T19:07:28;2.27;;;1.17;;
3309;SDS011;1667;53.238;10.394;2023-07-13T19:12:29;1.30;;;1.20;;
3309;SDS011;1667;53.238;10.394;2023-07-13T19:17:29;2.83;;;1.00;;
3309;SDS011;1667;53.238;10.394;2023-07-13T19:22:28;2.30;;;1.10;;
3309;SDS011;1667;53.238;10.394;2023-07-13T19:27:26;2.03;;;1.37;;
3309;SDS011;1667;53.238;10.394;2023-07-13T19:32:27;1.30;;;1.20;;
3309;SDS011;1667;53.238;10.394;2023-07-13T19:37:26;3.70;;;1.10;;
3309;SDS011;1667;53.238;10.394;2023-07-13T19:42:24;1.37;;;1.27;;
3309;SDS011;1667;53.238;10.394;2023-07-13T19:47:24;1.93;;;1.60;;
3309;SDS011;1667;53.238;10.394;2023-07-13T19:52:24;3.40;;;1.53;;
3309;SDS011;1667;53.238;10.394;2023-07-13T19:57:27;1.47;;;1.37;;
3309;SDS011;1667;53.238;10.394;2023-07-13T20:02:26;1.40;;;1.30;;
3309;SDS011;1667;53.238;10.394;2023-07-13T20:07:26;2.67;;;1.20;;
3309;SDS011;1667;53.238;10.394;2023-07-13T20:12:26;4.30;;;1.30;;
3309;SDS011;1667;53.238;10.394;2023-07-13T20:17:28;1.90;;;1.57;;
3309;SDS011;1667;53.238;10.394;2023-07-13T20:22:30;1.40;;;1.20;;
3309;SDS011;1667;53.238;10.394;2023-07-13T20:27:29;2.40;;;1.60;;
3309;SDS011;1667;53.238;10.394;2023-07-13T20:32:27;2.57;;;1.50;;
3309;SDS011;1667;53.238;10.394;2023-07-13T20:37:31;1.67;;;1.57;;
3309;SDS011;1667;53.238;10.394;2023-07-13T20:42:34;1.50;;;1.40;;
3309;SDS011;1667;53.238;10.394;2023-07-13T20:47:32;1.60;;;1.50;;
3309;SDS011;1667;53.238;10.394;2023-07-13T20:52:33;2.10;;;1.90;;
3309;SDS011;1667;53.238;10.394;2023-07-13T20:57:32;2.50;;;2.20;;
3309;SDS011;1667;53.238;10.394;2023-07-13T21:02:32;2.17;;;1.97;;
3309;SDS011;1667;53.238;10.394;2023-07-13T21:07:33;2.20;;;1.97;;
3309;SDS011;1667;53.238;10.394;2023-07-13T21:12:31;1.90;;;1.50;;
3309;SDS011;1667;53.238;10.394;2023-07-13T21:17:30;3.17;;;1.40;;
3309;SDS011;1667;53.238;10.394;2023-07-13T21:22:30;3.20;;;1.40;;
3309;SDS011;1667;53.238;10.394;2023-07-13T21:27:30;1.73;;;1.40;;
3309;SDS011;1667;53.238;10.394;2023-07-13T21:32:29;2.10;;;2.00;;
3309;SDS011;1667;53.238;10.394;2023-07-13T21:37:28;1.57;;;1.47;;
3309;SDS011;1667;53.238;10.394;2023-07-13T21:42:27;1.30;;;1.20;;
3309;SDS011;1667;53.238;10.394;2023-07-13T21:47:27;1.90;;;1.80;;
3309;SDS011;1667;53.238;10.394;2023-07-13T21:52:25;2.10;;;1.90;;
3309;SDS011;1667;53.238;10.394;2023-07-13T21:57:24;1.60;;;1.50;;
3309;SDS011;1667;53.238;10.394;2023-07-13T22:07:41;2.30;;;1.70;;
3309;SDS011;1667;53.238;10.394;2023-07-13T22:12:40;3.53;;;2.50;;
3309;SDS011;1667;53.238;10.394;2023-07-13T22:17:40;2.07;;;1.20;;
3309;SDS011;1667;53.238;10.394;2023-07-13T22:22:43;1.73;;;1.63;;
3309;SDS011;1667;53.238;10.394;2023-07-13T22:27:42;3.47;;;2.20;;
3309;SDS011;1667;53.238;10.394;2023-07-13T22:32:44;1.83;;;1.73;;
3309;SDS011;1667;53.238;10.394;2023-07-13T22:37:43;3.80;;;2.10;;
3309;SDS011;1667;53.238;10.394;2023-07-13T22:42:42;1.60;;;1.50;;
3309;SDS011;1667;53.238;10.394;2023-07-13T22:47:41;3.20;;;2.30;;
3309;SDS011;1667;53.238;10.394;2023-07-13T22:52:41;2.00;;;1.90;;
3309;SDS011;1667;53.238;10.394;2023-07-13T22:57:40;1.80;;;1.60;;
3309;SDS011;1667;53.238;10.394;2023-07-13T23:02:39;2.70;;;2.37;;
3309;SDS011;1667;53.238;10.394;2023-07-13T23:07:38;1.67;;;1.57;;
3309;SDS011;1667;53.238;10.394;2023-07-13T23:12:38;1.80;;;1.70;;
3309;SDS011;1667;53.238;10.394;2023-07-13T23:17:38;1.63;;;1.33;;
3309;SDS011;1667;53.238;10.394;2023-07-13T23:22:38;2.40;;;2.20;;
3309;SDS011;1667;53.238;10.394;2023-07-13T23:27:38;2.17;;;1.90;;
3309;SDS011;1667;53.238;10.394;2023-07-13T23:32:36;2.00;;;1.80;;
3309;SDS011;1667;53.238;10.394;2023-07-13T23:37:35;2.70;;;2.00;;
3309;SDS011;1667;53.238;10.394;2023-07-13T23:42:34;2.00;;;1.90;;
3309;SDS011;1667;53.238;10.394;2023-07-13T23:47:33;1.77;;;1.67;;
3309;SDS011;1667;53.238;10.394;2023-07-13T23:52:32;1.80;;;1.47;;
3309;SDS011;1667;53.238;10.394;2023-07-13T23:57:30;2.13;;;1.87;;
